MSC Flavia — 3FBD7 — position and weather

sailwx.info

Track history (hours):
 
Tides and Currents Weather Stations Pressure Air Temp Water Temp Dewpoint Dewpoint Depression Visibility Wind Speed Wind Dir Waves Ship Positions

MSC Flavia

Last reported at 2014-Aug-22 02:33 UTC. Time now 2014-Aug-27 15:11 UTC.
Position N 01°13' E 103°41'.

Length 366 m; draft 14.9 m.

Type: Ship (hazmat cat A). MMSI: 373004000.

Date/timePositionNaut miles runAvg speedWind from/ knotsBaromVisibWave heightAir tempDewpointWater temp
2014-Aug-22 02:33N 01°13' E 103°41'6 5.4
2014-Aug-22 01:33N 01°16' E 103°46'0 0.0
2014-Aug-22 00:33N 01°16' E 103°46'0 0.0
2014-Aug-21 23:18N 01°16' E 103°46'0 0.0
2014-Aug-21 21:15N 01°16' E 103°46'0 0.0
2014-Aug-21 20:33N 01°16' E 103°46'0 0.0
2014-Aug-21 18:33N 01°16' E 103°46'0 0.0
2014-Aug-21 17:33N 01°16' E 103°46'0 0.0
2014-Aug-21 16:30N 01°16' E 103°46'0 0.0
2014-Aug-21 15:33N 01°16' E 103°46'0 0.0
2014-Aug-21 14:33N 01°16' E 103°46'0 0.0
2014-Aug-21 13:32N 01°16' E 103°46'0 0.0
2014-Aug-21 12:26N 01°16' E 103°46'0 0.0
2014-Aug-21 11:30N 01°16' E 103°46'0 0.0
2014-Aug-21 10:33N 01°16' E 103°46'0 0.0
2014-Aug-21 09:32N 01°16' E 103°46'0 0.0
2014-Aug-21 08:26N 01°16' E 103°46'0 0.0
2014-Aug-21 07:26N 01°16' E 103°46'0 0.0
2014-Aug-21 06:06N 01°16' E 103°46'0 0.0
2014-Aug-21 03:32N 01°16' E 103°46'0 0.0
2014-Aug-21 02:32N 01°16' E 103°46'0 0.0
2014-Aug-21 01:32N 01°16' E 103°46'0 0.0
2014-Aug-21 00:26N 01°16' E 103°46'0 0.0
2014-Aug-20 22:29N 01°16' E 103°46'0 0.0
2014-Aug-20 21:32N 01°16' E 103°46'0 0.0
2014-Aug-20 20:14N 01°16' E 103°46'0 0.2
2014-Aug-20 19:26N 01°16' E 103°46'5 5.6
2014-Aug-20 18:33N 01°13' E 103°49'9 9.3
2014-Aug-20 17:32N 01°15' E 103°58'1310.9
2014-Aug-20 16:18N 01°17' E 104°11'  
2014-Aug-16 01:08N 29°47' E 123°16'3319.0
2014-Aug-15 23:24N 30°17' E 123°02'1619.3
2014-Aug-15 22:33N 30°27' E 122°46'1817.8
2014-Aug-15 21:33N 30°31' E 122°26'1514.8
2014-Aug-15 20:33N 30°34' E 122°09'5 0.3
2014-Aug-15 06:17N 30°37' E 122°04'7 9.7
2014-Aug-15 05:33N 30°34' E 122°12'1010.5
2014-Aug-15 04:33N 30°33' E 122°24'8 7.5
2014-Aug-15 03:33N 30°32' E 122°33'2 2.1
2014-Aug-15 02:23N 30°29' E 122°34'0 0.1
2014-Aug-15 01:29N 30°29' E 122°34'0 0.1
2014-Aug-15 00:29N 30°29' E 122°34'0 0.0
2014-Aug-14 23:29N 30°29' E 122°34'0 0.0
2014-Aug-14 22:17N 30°29' E 122°34'0 0.0
2014-Aug-14 21:29N 30°29' E 122°34'0 0.1
2014-Aug-14 20:29N 30°29' E 122°34'0 0.1
2014-Aug-14 19:29N 30°29' E 122°34'0 0.1
2014-Aug-14 18:29N 30°29' E 122°34'0 0.0
2014-Aug-14 17:29N 30°30' E 122°34'0 0.5
2014-Aug-14 16:33N 30°30' E 122°34'7 6.8
2014-Aug-14 15:33N 30°32' E 122°26'9 9.3
2014-Aug-14 14:33N 30°30' E 122°37'5 4.3
2014-Aug-14 13:28N 30°28' E 122°42'0 0.0
2014-Aug-14 12:28N 30°28' E 122°42'0 0.1
2014-Aug-14 11:28N 30°28' E 122°42'0 0.0
2014-Aug-14 10:22N 30°28' E 122°42'0 0.0
2014-Aug-14 09:28N 30°28' E 122°42'0 0.1
2014-Aug-14 08:10N 30°28' E 122°42'0 0.1
2014-Aug-14 07:28N 30°28' E 122°42'0 0.1
2014-Aug-14 06:28N 30°28' E 122°42'0 0.1
2014-Aug-14 05:28N 30°28' E 122°41'0 0.1
2014-Aug-14 04:28N 30°28' E 122°41'0 0.0
2014-Aug-14 03:28N 30°28' E 122°41'0 0.0
2014-Aug-14 02:28N 30°28' E 122°41'0 0.1
2014-Aug-14 01:16N 30°28' E 122°41'0 0.0
2014-Aug-14 00:28N 30°28' E 122°41'0 0.2
2014-Aug-13 23:22N 30°28' E 122°42'0 0.1
2014-Aug-13 22:22N 30°28' E 122°42'0 0.0
2014-Aug-13 21:28N 30°28' E 122°42'0 0.0
2014-Aug-13 20:28N 30°28' E 122°42'0 0.0
2014-Aug-13 19:28N 30°28' E 122°42'0 0.1
2014-Aug-13 17:32N 30°28' E 122°42'0 0.1
2014-Aug-13 16:28N 30°28' E 122°41'0 0.3
2014-Aug-13 15:33N 30°28' E 122°42'5 4.9
2014-Aug-13 14:33N 30°28' E 122°47'1313.0
2014-Aug-13 13:33N 30°19' E 122°59'2914.4
2014-Aug-13 11:32N 29°51' E 122°51'1616.4
2014-Aug-13 10:33N 29°40' E 122°37'1312.6
2014-Aug-13 09:33N 29°43' E 122°23'1313.2
2014-Aug-13 08:33N 29°51' E 122°12'8 8.5
2014-Aug-13 07:33N 29°54' E 122°02'0 0.0
2014-Aug-13 06:32N 29°54' E 122°02'0 0.0
2014-Aug-13 05:32N 29°54' E 122°02'0 0.0
2014-Aug-13 04:32N 29°54' E 122°02'0 0.0
2014-Aug-13 03:32N 29°54' E 122°02'0 0.0
2014-Aug-13 02:32N 29°54' E 122°02'0 0.0
2014-Aug-13 01:32N 29°54' E 122°02'0 0.0
2014-Aug-13 00:32N 29°54' E 122°02'0 0.0
2014-Aug-12 23:32N 29°54' E 122°02'0 0.0
2014-Aug-12 22:32N 29°54' E 122°02'0 0.0
2014-Aug-12 21:32N 29°54' E 122°02'0 0.0
2014-Aug-12 20:32N 29°54' E 122°02'0 0.0
2014-Aug-12 19:32N 29°54' E 122°02'0 0.0
2014-Aug-12 18:32N 29°54' E 122°02'0 0.0
2014-Aug-12 17:32N 29°54' E 122°02'0 0.0
2014-Aug-12 16:32N 29°54' E 122°02'0 0.0
2014-Aug-12 15:32N 29°54' E 122°02'0 0.0
2014-Aug-12 14:32N 29°54' E 122°02'0 0.0
2014-Aug-12 13:32N 29°54' E 122°02'4 4.1
2014-Aug-12 12:33N 29°55' E 122°06'8 8.5
2014-Aug-12 11:34N 29°49' E 122°13'10 9.5
2014-Aug-12 10:33N 29°44' E 122°23'1010.2
2014-Aug-12 09:33N 29°45' E 122°34'10 9.3
2014-Aug-12 08:32N 29°49' E 122°45'2216.4
2014-Aug-12 07:10N 29°57' E 123°09'  
Track history (hours):
 
Tides and Currents Weather Stations Pressure Air Temp Water Temp Dewpoint Dewpoint Depression Visibility Wind Speed Wind Dir Waves Ship Positions

MSC Flavia

Last reported at 2014-Aug-22 02:33 UTC. Time now 2014-Aug-27 15:11 UTC.
Position N 01°13' E 103°41'.

Length 366 m; draft 14.9 m.

Type: Ship (hazmat cat A). MMSI: 373004000.

Date/timePositionNaut miles runAvg speedWind from/ knotsBaromVisibWave heightAir tempDewpointWater temp
2014-Aug-22 02:33N 01°13' E 103°41'6 5.4
2014-Aug-22 01:33N 01°16' E 103°46'0 0.0
2014-Aug-22 00:33N 01°16' E 103°46'0 0.0
2014-Aug-21 23:18N 01°16' E 103°46'0 0.0
2014-Aug-21 21:15N 01°16' E 103°46'0 0.0
2014-Aug-21 20:33N 01°16' E 103°46'0 0.0
2014-Aug-21 18:33N 01°16' E 103°46'0 0.0
2014-Aug-21 17:33N 01°16' E 103°46'0 0.0
2014-Aug-21 16:30N 01°16' E 103°46'0 0.0
2014-Aug-21 15:33N 01°16' E 103°46'0 0.0
2014-Aug-21 14:33N 01°16' E 103°46'0 0.0
2014-Aug-21 13:32N 01°16' E 103°46'0 0.0
2014-Aug-21 12:26N 01°16' E 103°46'0 0.0
2014-Aug-21 11:30N 01°16' E 103°46'0 0.0
2014-Aug-21 10:33N 01°16' E 103°46'0 0.0
2014-Aug-21 09:32N 01°16' E 103°46'0 0.0
2014-Aug-21 08:26N 01°16' E 103°46'0 0.0
2014-Aug-21 07:26N 01°16' E 103°46'0 0.0
2014-Aug-21 06:06N 01°16' E 103°46'0 0.0
2014-Aug-21 03:32N 01°16' E 103°46'0 0.0
2014-Aug-21 02:32N 01°16' E 103°46'0 0.0
2014-Aug-21 01:32N 01°16' E 103°46'0 0.0
2014-Aug-21 00:26N 01°16' E 103°46'0 0.0
2014-Aug-20 22:29N 01°16' E 103°46'0 0.0
2014-Aug-20 21:32N 01°16' E 103°46'0 0.0
2014-Aug-20 20:14N 01°16' E 103°46'0 0.2
2014-Aug-20 19:26N 01°16' E 103°46'5 5.6
2014-Aug-20 18:33N 01°13' E 103°49'9 9.3
2014-Aug-20 17:32N 01°15' E 103°58'1310.9
2014-Aug-20 16:18N 01°17' E 104°11'  
2014-Aug-16 01:08N 29°47' E 123°16'3319.0
2014-Aug-15 23:24N 30°17' E 123°02'1619.3
2014-Aug-15 22:33N 30°27' E 122°46'1817.8
2014-Aug-15 21:33N 30°31' E 122°26'1514.8
2014-Aug-15 20:33N 30°34' E 122°09'5 0.3
2014-Aug-15 06:17N 30°37' E 122°04'7 9.7
2014-Aug-15 05:33N 30°34' E 122°12'1010.5
2014-Aug-15 04:33N 30°33' E 122°24'8 7.5
2014-Aug-15 03:33N 30°32' E 122°33'2 2.1
2014-Aug-15 02:23N 30°29' E 122°34'0 0.1
2014-Aug-15 01:29N 30°29' E 122°34'0 0.1
2014-Aug-15 00:29N 30°29' E 122°34'0 0.0
2014-Aug-14 23:29N 30°29' E 122°34'0 0.0
2014-Aug-14 22:17N 30°29' E 122°34'0 0.0
2014-Aug-14 21:29N 30°29' E 122°34'0 0.1
2014-Aug-14 20:29N 30°29' E 122°34'0 0.1
2014-Aug-14 19:29N 30°29' E 122°34'0 0.1
2014-Aug-14 18:29N 30°29' E 122°34'0 0.0
2014-Aug-14 17:29N 30°30' E 122°34'0 0.5
2014-Aug-14 16:33N 30°30' E 122°34'7 6.8
2014-Aug-14 15:33N 30°32' E 122°26'9 9.3
2014-Aug-14 14:33N 30°30' E 122°37'5 4.3
2014-Aug-14 13:28N 30°28' E 122°42'0 0.0
2014-Aug-14 12:28N 30°28' E 122°42'0 0.1
2014-Aug-14 11:28N 30°28' E 122°42'0 0.0
2014-Aug-14 10:22N 30°28' E 122°42'0 0.0
2014-Aug-14 09:28N 30°28' E 122°42'0 0.1
2014-Aug-14 08:10N 30°28' E 122°42'0 0.1
2014-Aug-14 07:28N 30°28' E 122°42'0 0.1
2014-Aug-14 06:28N 30°28' E 122°42'0 0.1
2014-Aug-14 05:28N 30°28' E 122°41'0 0.1
2014-Aug-14 04:28N 30°28' E 122°41'0 0.0
2014-Aug-14 03:28N 30°28' E 122°41'0 0.0
2014-Aug-14 02:28N 30°28' E 122°41'0 0.1
2014-Aug-14 01:16N 30°28' E 122°41'0 0.0
2014-Aug-14 00:28N 30°28' E 122°41'0 0.2
2014-Aug-13 23:22N 30°28' E 122°42'0 0.1
2014-Aug-13 22:22N 30°28' E 122°42'0 0.0
2014-Aug-13 21:28N 30°28' E 122°42'0 0.0
2014-Aug-13 20:28N 30°28' E 122°42'0 0.0
2014-Aug-13 19:28N 30°28' E 122°42'0 0.1
2014-Aug-13 17:32N 30°28' E 122°42'0 0.1
2014-Aug-13 16:28N 30°28' E 122°41'0 0.3
2014-Aug-13 15:33N 30°28' E 122°42'5 4.9
2014-Aug-13 14:33N 30°28' E 122°47'1313.0
2014-Aug-13 13:33N 30°19' E 122°59'2914.4
2014-Aug-13 11:32N 29°51' E 122°51'1616.4
2014-Aug-13 10:33N 29°40' E 122°37'1312.6
2014-Aug-13 09:33N 29°43' E 122°23'1313.2
2014-Aug-13 08:33N 29°51' E 122°12'8 8.5
2014-Aug-13 07:33N 29°54' E 122°02'0 0.0
2014-Aug-13 06:32N 29°54' E 122°02'0 0.0
2014-Aug-13 05:32N 29°54' E 122°02'0 0.0
2014-Aug-13 04:32N 29°54' E 122°02'0 0.0
2014-Aug-13 03:32N 29°54' E 122°02'0 0.0
2014-Aug-13 02:32N 29°54' E 122°02'0 0.0
2014-Aug-13 01:32N 29°54' E 122°02'0 0.0
2014-Aug-13 00:32N 29°54' E 122°02'0 0.0
2014-Aug-12 23:32N 29°54' E 122°02'0 0.0
2014-Aug-12 22:32N 29°54' E 122°02'0 0.0
2014-Aug-12 21:32N 29°54' E 122°02'0 0.0
2014-Aug-12 20:32N 29°54' E 122°02'0 0.0
2014-Aug-12 19:32N 29°54' E 122°02'0 0.0
2014-Aug-12 18:32N 29°54' E 122°02'0 0.0
2014-Aug-12 17:32N 29°54' E 122°02'0 0.0
2014-Aug-12 16:32N 29°54' E 122°02'0 0.0
2014-Aug-12 15:32N 29°54' E 122°02'0 0.0
2014-Aug-12 14:32N 29°54' E 122°02'0 0.0
2014-Aug-12 13:32N 29°54' E 122°02'4 4.1
2014-Aug-12 12:33N 29°55' E 122°06'8 8.5
2014-Aug-12 11:34N 29°49' E 122°13'10 9.5
2014-Aug-12 10:33N 29°44' E 122°23'1010.2
2014-Aug-12 09:33N 29°45' E 122°34'10 9.3
2014-Aug-12 08:32N 29°49' E 122°45'2216.4
2014-Aug-12 07:10N 29°57' E 123°09'  

Dump ship's entire track history